createdAt,value
2023-03-08T00:02:17.004Z,1.80
2023-03-08T00:04:43.926Z,1.80
2023-03-08T00:07:11.365Z,1.80
2023-03-08T00:09:40.418Z,1.90
2023-03-08T00:12:08.486Z,1.90
2023-03-08T00:14:35.583Z,1.90
2023-03-08T00:17:03.700Z,1.90
2023-03-08T00:19:30.927Z,2.00
2023-03-08T00:21:59.818Z,1.90
2023-03-08T00:24:26.917Z,2.00
2023-03-08T00:26:53.979Z,2.00
2023-03-08T00:29:21.158Z,2.00
2023-03-08T00:31:48.764Z,2.00
2023-03-08T00:34:16.654Z,2.00
2023-03-08T00:36:43.813Z,2.00
2023-03-08T00:39:11.984Z,2.00
2023-03-08T00:41:38.892Z,2.00
2023-03-08T00:44:05.810Z,2.10
2023-03-08T00:46:32.654Z,2.10
2023-03-08T00:48:59.980Z,2.10
2023-03-08T00:51:27.102Z,2.10
2023-03-08T00:53:53.913Z,2.10
2023-03-08T00:56:21.398Z,2.10
2023-03-08T00:58:48.972Z,2.10
2023-03-08T01:01:17.491Z,2.20
2023-03-08T01:03:45.643Z,2.10
2023-03-08T01:06:13.572Z,2.10
2023-03-08T01:08:42.185Z,2.10
2023-03-08T01:11:20.790Z,2.10
2023-03-08T01:13:48.305Z,2.20
2023-03-08T01:16:19.354Z,2.20
2023-03-08T01:18:46.207Z,2.20
2023-03-08T01:21:13.226Z,2.20
2023-03-08T01:23:42.488Z,2.20
2023-03-08T01:26:12.279Z,2.20
2023-03-08T01:28:39.294Z,2.20
2023-03-08T01:31:17.414Z,2.20
2023-03-08T01:33:44.803Z,2.30
2023-03-08T01:36:15.359Z,2.30
2023-03-08T01:38:43.516Z,2.20
2023-03-08T01:41:34.546Z,2.30
2023-03-08T01:44:01.349Z,2.30
2023-03-08T01:46:29.999Z,2.30
2023-03-08T01:49:05.653Z,2.30
2023-03-08T01:51:43.600Z,2.30
2023-03-08T01:54:15.247Z,2.30
2023-03-08T01:56:42.917Z,2.30
2023-03-08T01:59:09.753Z,2.30
2023-03-08T02:01:36.566Z,2.30
2023-03-08T02:04:03.718Z,2.30
2023-03-08T02:06:31.002Z,2.30
2023-03-08T02:08:58.405Z,2.30
2023-03-08T02:11:25.587Z,2.30
2023-03-08T02:13:52.794Z,2.30
2023-03-08T02:16:20.102Z,2.30
2023-03-08T02:18:52.514Z,2.30
2023-03-08T02:21:20.066Z,2.30
2023-03-08T02:23:46.830Z,2.40
2023-03-08T02:26:14.264Z,2.40
2023-03-08T02:28:41.186Z,2.40
2023-03-08T02:31:08.198Z,2.40
2023-03-08T02:33:35.230Z,2.40
2023-03-08T02:36:03.135Z,2.40
2023-03-08T02:38:30.422Z,2.40
2023-03-08T02:40:57.470Z,2.40
2023-03-08T02:43:24.927Z,2.50
2023-03-08T02:45:51.970Z,2.40
2023-03-08T02:48:18.914Z,2.40
2023-03-08T02:50:46.481Z,2.40
2023-03-08T02:53:13.378Z,2.50
2023-03-08T02:55:41.123Z,2.50
2023-03-08T02:58:09.793Z,2.50
2023-03-08T03:00:36.986Z,2.50
2023-03-08T03:03:03.975Z,2.50
2023-03-08T03:05:31.356Z,2.50
2023-03-08T03:07:59.161Z,2.50
2023-03-08T03:10:26.884Z,2.50
2023-03-08T03:12:53.644Z,2.50
2023-03-08T03:15:20.925Z,2.50
2023-03-08T03:17:48.412Z,2.50
2023-03-08T03:20:15.888Z,2.50
2023-03-08T03:22:43.177Z,2.40
2023-03-08T03:25:10.548Z,2.40
2023-03-08T03:27:37.886Z,2.40
2023-03-08T03:30:05.811Z,2.30
2023-03-08T03:32:33.549Z,2.30
2023-03-08T03:35:00.528Z,2.30
2023-03-08T03:37:27.590Z,2.30
2023-03-08T03:39:54.458Z,2.30
2023-03-08T03:42:21.481Z,2.30
2023-03-08T03:44:49.267Z,2.30
2023-03-08T03:47:17.931Z,2.30
2023-03-08T03:49:44.788Z,2.30
2023-03-08T03:52:11.793Z,2.30
2023-03-08T03:54:38.534Z,2.30
2023-03-08T03:57:05.482Z,2.20
2023-03-08T03:59:34.089Z,2.20
2023-03-08T04:02:00.980Z,2.20
2023-03-08T04:04:28.003Z,2.20
2023-03-08T04:06:54.835Z,2.20
2023-03-08T04:09:21.750Z,2.10
2023-03-08T04:11:48.511Z,2.10
2023-03-08T04:14:15.549Z,2.10
2023-03-08T04:16:42.438Z,2.10
2023-03-08T04:19:11.728Z,2.10
2023-03-08T04:21:39.181Z,2.00
2023-03-08T04:24:06.402Z,2.00
2023-03-08T04:26:33.245Z,2.00
2023-03-08T04:29:00.273Z,1.90
2023-03-08T04:31:28.648Z,1.90
2023-03-08T04:33:55.479Z,1.80
2023-03-08T04:36:22.671Z,1.80
2023-03-08T04:38:50.161Z,1.70
2023-03-08T04:41:20.002Z,1.70
2023-03-08T04:43:48.639Z,1.70
2023-03-08T04:46:16.054Z,1.70
2023-03-08T04:48:43.236Z,1.70
2023-03-08T04:51:12.153Z,1.70
2023-03-08T04:53:39.418Z,1.70
2023-03-08T04:56:06.793Z,1.70
2023-03-08T04:58:34.080Z,1.70
2023-03-08T05:01:01.025Z,1.70
2023-03-08T05:03:28.102Z,1.70
2023-03-08T05:05:55.886Z,1.70
2023-03-08T05:08:23.641Z,1.60
2023-03-08T05:11:01.170Z,1.60
2023-03-08T05:13:29.760Z,1.60
2023-03-08T05:15:56.891Z,1.60
2023-03-08T05:18:24.316Z,1.60
2023-03-08T05:21:15.522Z,1.60
2023-03-08T05:23:42.784Z,1.60
2023-03-08T05:26:10.907Z,1.60
2023-03-08T05:28:38.705Z,1.60
2023-03-08T05:31:08.015Z,1.60
2023-03-08T05:33:35.792Z,1.60
2023-03-08T05:36:03.058Z,1.60
2023-03-08T05:38:30.079Z,1.60
2023-03-08T05:41:03.840Z,1.60
2023-03-08T05:43:30.770Z,1.60
2023-03-08T05:45:59.825Z,1.60
2023-03-08T05:48:26.740Z,1.60
2023-03-08T05:50:54.002Z,1.60
2023-03-08T05:53:21.535Z,1.60
2023-03-08T05:55:48.418Z,1.60
2023-03-08T05:58:15.466Z,1.60
2023-03-08T06:00:42.410Z,1.60
2023-03-08T06:03:09.448Z,1.60
2023-03-08T06:05:37.198Z,1.60
2023-03-08T06:08:04.475Z,1.60
2023-03-08T06:10:31.489Z,1.60
2023-03-08T06:12:58.749Z,1.60
2023-03-08T06:15:25.813Z,1.60
2023-03-08T06:17:54.465Z,1.60
2023-03-08T06:20:21.381Z,1.60
2023-03-08T06:22:48.368Z,1.60
2023-03-08T06:25:16.171Z,1.60
2023-03-08T06:27:43.253Z,1.60
2023-03-08T06:30:10.840Z,1.60
2023-03-08T06:32:37.835Z,1.60
2023-03-08T06:35:05.358Z,1.60
2023-03-08T06:37:34.188Z,1.60
2023-03-08T06:40:01.855Z,1.60
2023-03-08T06:42:40.763Z,1.60
2023-03-08T06:45:09.227Z,1.60
2023-03-08T06:47:36.102Z,1.60
2023-03-08T06:50:04.274Z,1.60
2023-03-08T06:52:37.717Z,1.60
2023-03-08T06:55:05.448Z,1.60
2023-03-08T06:57:32.733Z,1.60
2023-03-08T07:00:00.102Z,1.60
2023-03-08T07:02:27.149Z,1.50
2023-03-08T07:04:54.064Z,1.60
2023-03-08T07:07:21.032Z,1.60
2023-03-08T07:09:48.233Z,1.60
2023-03-08T07:12:15.170Z,1.60
2023-03-08T07:14:41.969Z,1.60
2023-03-08T07:17:09.127Z,1.70
2023-03-08T07:19:35.955Z,1.70
2023-03-08T07:22:02.800Z,1.80
2023-03-08T07:24:29.811Z,1.80
2023-03-08T07:26:56.818Z,1.80
2023-03-08T07:29:23.603Z,1.80
2023-03-08T07:31:50.367Z,1.70
2023-03-08T07:34:17.161Z,1.70
2023-03-08T07:36:43.993Z,1.70
2023-03-08T07:39:11.618Z,1.70
2023-03-08T07:41:38.424Z,1.70
2023-03-08T07:44:05.614Z,1.80
2023-03-08T07:46:32.416Z,1.80
2023-03-08T07:48:59.570Z,1.80
2023-03-08T07:51:26.424Z,1.90
2023-03-08T07:53:54.686Z,1.90
2023-03-08T07:56:21.417Z,1.90
2023-03-08T07:58:48.662Z,1.90
2023-03-08T08:01:16.035Z,1.90
2023-03-08T08:03:43.455Z,2.00
2023-03-08T08:06:10.541Z,2.00
2023-03-08T08:08:37.591Z,2.00
2023-03-08T08:11:13.584Z,1.90
2023-03-08T08:13:40.983Z,2.00
2023-03-08T08:16:07.878Z,2.00
2023-03-08T08:18:35.498Z,2.00
2023-03-08T08:21:06.559Z,2.00
2023-03-08T08:23:33.811Z,2.10
2023-03-08T08:26:01.073Z,2.10
2023-03-08T08:28:28.428Z,2.10
2023-03-08T08:30:59.406Z,2.10
2023-03-08T08:33:27.735Z,2.10
2023-03-08T08:35:56.223Z,2.20
2023-03-08T08:38:23.480Z,2.20
2023-03-08T08:40:51.346Z,2.20
2023-03-08T08:43:18.317Z,2.30
2023-03-08T08:45:49.765Z,2.30
2023-03-08T08:48:18.287Z,2.40
2023-03-08T08:50:45.265Z,2.40
2023-03-08T08:53:12.074Z,2.50
2023-03-08T08:55:41.480Z,2.50
2023-03-08T08:58:08.776Z,2.50
2023-03-08T09:00:36.017Z,2.50
2023-03-08T09:03:03.548Z,2.50
2023-03-08T09:05:30.622Z,2.50
2023-03-08T09:08:01.136Z,2.50
2023-03-08T09:10:28.831Z,2.40
2023-03-08T09:12:57.753Z,2.50
2023-03-08T09:15:26.156Z,2.50
2023-03-08T09:17:53.565Z,2.50
2023-03-08T09:20:22.956Z,2.50
2023-03-08T09:22:50.523Z,2.50
2023-03-08T09:25:19.606Z,2.60
2023-03-08T09:27:46.570Z,2.60
2023-03-08T09:30:15.927Z,2.70
2023-03-08T09:32:43.051Z,2.70
2023-03-08T09:35:10.166Z,2.70
2023-03-08T09:37:37.086Z,2.70
2023-03-08T09:40:09.749Z,2.70
2023-03-08T09:42:38.236Z,2.70
2023-03-08T09:45:08.038Z,2.70
2023-03-08T09:48:08.517Z,2.70
2023-03-08T09:50:43.194Z,2.80
2023-03-08T09:53:16.857Z,2.80
2023-03-08T09:56:24.238Z,2.80
2023-03-08T09:58:58.446Z,2.80
2023-03-08T10:01:43.286Z,2.90
2023-03-08T10:04:28.666Z,2.80
2023-03-08T10:07:01.169Z,2.80
2023-03-08T10:09:33.408Z,2.80
2023-03-08T10:12:13.465Z,2.80
2023-03-08T10:14:49.384Z,2.80
2023-03-08T10:17:22.050Z,2.80
2023-03-08T10:20:01.914Z,2.80
2023-03-08T10:22:34.326Z,2.80
2023-03-08T10:25:24.286Z,2.70
2023-03-08T10:27:54.277Z,2.80
2023-03-08T10:30:23.151Z,2.70
2023-03-08T10:32:51.450Z,2.70
2023-03-08T10:35:18.894Z,2.70
2023-03-08T10:37:51.089Z,2.80
2023-03-08T10:40:20.511Z,2.80
2023-03-08T10:42:53.496Z,2.90
2023-03-08T10:45:22.312Z,2.90
2023-03-08T10:47:57.156Z,2.90
2023-03-08T10:50:26.631Z,3.00
2023-03-08T10:52:53.468Z,3.00
2023-03-08T10:55:26.766Z,3.10
2023-03-08T10:57:54.986Z,3.10
2023-03-08T11:00:30.913Z,3.20
2023-03-08T11:03:19.772Z,3.10
2023-03-08T11:05:53.441Z,3.10
2023-03-08T11:08:47.870Z,3.10
2023-03-08T11:11:14.639Z,3.10
2023-03-08T11:13:45.169Z,3.20
2023-03-08T11:16:20.226Z,3.30
2023-03-08T11:19:15.007Z,3.30
2023-03-08T11:22:00.160Z,3.30
2023-03-08T11:25:08.096Z,3.30
2023-03-08T11:28:02.587Z,3.40
2023-03-08T11:30:35.413Z,3.40
2023-03-08T11:33:05.079Z,3.40
2023-03-08T11:36:07.893Z,3.40
2023-03-08T11:38:35.572Z,3.40
2023-03-08T11:41:14.788Z,3.50
2023-03-08T11:43:47.849Z,3.50
2023-03-08T11:46:21.624Z,3.40
2023-03-08T11:49:14.894Z,3.50
2023-03-08T11:51:47.518Z,3.50
2023-03-08T11:54:51.902Z,3.40
2023-03-08T11:57:19.124Z,3.30
2023-03-08T11:59:53.135Z,3.30
2023-03-08T12:02:25.268Z,3.30
2023-03-08T12:05:08.051Z,3.40
2023-03-08T12:08:12.289Z,3.40
2023-03-08T12:11:08.150Z,3.50
2023-03-08T12:13:44.640Z,3.50
2023-03-08T12:16:25.452Z,3.40
2023-03-08T12:19:19.582Z,3.40
2023-03-08T12:22:09.803Z,3.50
2023-03-08T12:24:55.207Z,3.40
2023-03-08T12:27:35.589Z,3.30
2023-03-08T12:30:14.773Z,3.30
2023-03-08T12:32:41.900Z,3.30
2023-03-08T12:35:21.018Z,3.30
2023-03-08T12:37:56.342Z,3.30
2023-03-08T12:40:36.412Z,3.40
2023-03-08T12:43:11.398Z,3.40
2023-03-08T12:45:39.307Z,3.40
2023-03-08T12:48:06.062Z,3.40
2023-03-08T12:51:00.030Z,3.40
2023-03-08T12:53:49.119Z,3.40
2023-03-08T12:56:32.948Z,3.40
2023-03-08T12:59:01.165Z,3.30
2023-03-08T13:01:31.447Z,3.40
2023-03-08T13:03:58.400Z,3.40
2023-03-08T13:06:25.833Z,3.40
2023-03-08T13:09:07.620Z,3.40
2023-03-08T13:11:39.113Z,3.50
2023-03-08T13:14:38.691Z,3.50
2023-03-08T13:17:31.459Z,3.40
2023-03-08T13:20:06.995Z,3.40
2023-03-08T13:22:42.948Z,3.40
2023-03-08T13:25:28.285Z,3.40
2023-03-08T13:28:11.448Z,3.30
2023-03-08T13:30:47.017Z,3.30
2023-03-08T13:33:24.924Z,3.40
2023-03-08T13:36:01.830Z,3.40
2023-03-08T13:38:31.762Z,3.40
2023-03-08T13:40:59.052Z,3.40
2023-03-08T13:43:28.314Z,3.50
2023-03-08T13:45:58.390Z,3.50
2023-03-08T13:48:26.923Z,3.50
2023-03-08T13:50:53.900Z,3.50
2023-03-08T13:53:22.649Z,3.50
2023-03-08T13:55:51.944Z,3.50
2023-03-08T13:58:35.270Z,3.40
2023-03-08T14:01:12.248Z,3.40
2023-03-08T14:03:39.298Z,3.50
2023-03-08T14:06:24.687Z,3.50
2023-03-08T14:08:51.876Z,3.60
2023-03-08T14:11:23.872Z,3.60
2023-03-08T14:13:55.279Z,3.60
2023-03-08T14:16:37.134Z,3.50
2023-03-08T14:19:22.961Z,3.50
2023-03-08T14:21:59.631Z,3.50
2023-03-08T14:24:28.171Z,3.60
2023-03-08T14:27:02.801Z,3.60
2023-03-08T14:29:34.602Z,3.60
2023-03-08T14:32:10.509Z,3.60
2023-03-08T14:34:42.113Z,3.60
2023-03-08T14:37:11.930Z,3.50
2023-03-08T14:39:40.878Z,3.50
2023-03-08T14:42:24.575Z,3.60
2023-03-08T14:44:57.774Z,3.60
2023-03-08T14:47:29.186Z,3.60
2023-03-08T14:50:28.151Z,3.60
2023-03-08T14:52:55.878Z,3.50
2023-03-08T14:55:27.350Z,3.60
2023-03-08T14:57:58.147Z,3.60
2023-03-08T15:00:27.665Z,3.60
2023-03-08T15:02:54.946Z,3.60
2023-03-08T15:05:29.214Z,3.70
2023-03-08T15:07:57.195Z,3.70
2023-03-08T15:10:33.990Z,3.70
2023-03-08T15:13:00.829Z,3.60
2023-03-08T15:15:28.479Z,3.60
2023-03-08T15:17:55.554Z,3.60
2023-03-08T15:20:23.556Z,3.60
2023-03-08T15:22:56.044Z,3.50
2023-03-08T15:25:31.218Z,3.50
2023-03-08T15:27:58.206Z,3.50
2023-03-08T15:30:26.655Z,3.50
2023-03-08T15:32:53.884Z,3.50
2023-03-08T15:35:21.235Z,3.50
2023-03-08T15:37:48.201Z,3.50
2023-03-08T15:40:24.641Z,3.40
2023-03-08T15:42:51.542Z,3.40
2023-03-08T15:45:18.965Z,3.40
2023-03-08T15:47:56.484Z,3.40
2023-03-08T15:50:23.403Z,3.40
2023-03-08T15:52:50.544Z,3.40
2023-03-08T15:55:18.749Z,3.40
2023-03-08T15:57:46.183Z,3.40
2023-03-08T16:00:13.842Z,3.40
2023-03-08T16:02:40.835Z,3.40
2023-03-08T16:05:10.443Z,3.40
2023-03-08T16:07:37.568Z,3.50
2023-03-08T16:10:05.563Z,3.50
2023-03-08T16:12:32.481Z,3.50
2023-03-08T16:14:59.684Z,3.50
2023-03-08T16:17:28.697Z,3.60
2023-03-08T16:19:55.575Z,3.60
2023-03-08T16:22:22.671Z,3.60
2023-03-08T16:24:49.597Z,3.50
2023-03-08T16:27:17.023Z,3.50
2023-03-08T16:29:43.993Z,3.50
2023-03-08T16:32:13.614Z,3.50
2023-03-08T16:34:40.549Z,3.50
2023-03-08T16:37:07.583Z,3.50
2023-03-08T16:39:34.706Z,3.50
2023-03-08T16:42:01.874Z,3.50
2023-03-08T16:44:30.018Z,3.50
2023-03-08T16:46:57.299Z,3.50
2023-03-08T16:49:28.770Z,3.50
2023-03-08T16:51:56.253Z,3.50
2023-03-08T16:54:23.183Z,3.40
2023-03-08T16:56:50.623Z,3.40
2023-03-08T16:59:17.636Z,3.40
2023-03-08T17:01:44.517Z,3.40
2023-03-08T17:04:11.825Z,3.40
2023-03-08T17:06:39.060Z,3.40
2023-03-08T17:09:06.113Z,3.40
2023-03-08T17:11:34.476Z,3.40
2023-03-08T17:14:07.984Z,3.40
2023-03-08T17:16:35.759Z,3.40
2023-03-08T17:19:06.353Z,3.40
2023-03-08T17:21:38.503Z,3.40
2023-03-08T17:24:07.515Z,3.40
2023-03-08T17:26:35.738Z,3.40
2023-03-08T17:29:03.242Z,3.40
2023-03-08T17:31:30.764Z,3.40
2023-03-08T17:33:58.852Z,3.40
2023-03-08T17:36:26.120Z,3.40
2023-03-08T17:38:53.757Z,3.40
2023-03-08T17:41:21.222Z,3.40
2023-03-08T17:43:48.208Z,3.40
2023-03-08T17:46:25.809Z,3.40
2023-03-08T17:48:53.819Z,3.40
2023-03-08T17:51:28.602Z,3.40
2023-03-08T17:53:57.108Z,3.40
2023-03-08T17:56:29.735Z,3.40
2023-03-08T17:58:57.831Z,3.40
2023-03-08T18:01:26.417Z,3.40
2023-03-08T18:03:57.742Z,3.40
2023-03-08T18:06:35.851Z,3.40
2023-03-08T18:09:11.952Z,3.30
2023-03-08T18:11:39.130Z,3.40
2023-03-08T18:14:06.646Z,3.40
2023-03-08T18:16:34.417Z,3.40
2023-03-08T18:19:02.698Z,3.50
2023-03-08T18:21:31.168Z,3.60
2023-03-08T18:24:01.654Z,3.60
2023-03-08T18:26:28.853Z,3.70
2023-03-08T18:28:56.352Z,3.70
2023-03-08T18:31:26.437Z,3.70
2023-03-08T18:33:55.058Z,3.70
2023-03-08T18:36:22.508Z,3.70
2023-03-08T18:38:49.576Z,3.70
2023-03-08T18:41:18.468Z,3.60
2023-03-08T18:43:46.408Z,3.60
2023-03-08T18:46:14.105Z,3.60
2023-03-08T18:48:41.587Z,3.60
2023-03-08T18:51:08.576Z,3.70
2023-03-08T18:53:36.064Z,3.70
2023-03-08T18:56:04.390Z,3.70
2023-03-08T18:58:31.903Z,3.70
2023-03-08T19:01:00.497Z,3.80
2023-03-08T19:03:28.588Z,3.80
2023-03-08T19:05:56.023Z,3.70
2023-03-08T19:08:23.479Z,3.70
2023-03-08T19:10:51.080Z,3.70
2023-03-08T19:13:20.026Z,3.70
2023-03-08T19:15:46.955Z,3.70
2023-03-08T19:18:13.990Z,3.70
2023-03-08T19:20:41.890Z,3.70
2023-03-08T19:23:09.989Z,3.70
2023-03-08T19:26:00.418Z,3.60
2023-03-08T19:28:27.948Z,3.70
2023-03-08T19:30:55.506Z,3.70
2023-03-08T19:33:31.771Z,3.70
2023-03-08T19:35:59.626Z,3.60
2023-03-08T19:38:27.299Z,3.60
2023-03-08T19:40:55.137Z,3.60
2023-03-08T19:43:22.076Z,3.60
2023-03-08T19:45:50.400Z,3.60
2023-03-08T19:48:17.479Z,3.60
2023-03-08T19:50:45.848Z,3.60
2023-03-08T19:53:13.251Z,3.60
2023-03-08T19:55:51.255Z,3.60
2023-03-08T19:58:18.575Z,3.60
2023-03-08T20:00:45.677Z,3.60
2023-03-08T20:03:13.313Z,3.60
2023-03-08T20:05:46.893Z,3.60
2023-03-08T20:08:14.158Z,3.60
2023-03-08T20:10:41.931Z,3.50
2023-03-08T20:13:09.292Z,3.60
2023-03-08T20:15:36.636Z,3.60
2023-03-08T20:18:03.562Z,3.60
2023-03-08T20:20:30.545Z,3.60
2023-03-08T20:22:57.481Z,3.60
2023-03-08T20:25:24.356Z,3.60
2023-03-08T20:27:52.060Z,3.60
2023-03-08T20:30:19.693Z,3.60
2023-03-08T20:32:46.702Z,3.60
2023-03-08T20:35:15.140Z,3.70
2023-03-08T20:37:42.699Z,3.60
2023-03-08T20:40:13.461Z,3.60
2023-03-08T20:42:40.378Z,3.70
2023-03-08T20:45:11.070Z,3.60
2023-03-08T20:47:38.877Z,3.70
2023-03-08T20:50:07.779Z,3.70
2023-03-08T20:52:35.837Z,3.70
2023-03-08T20:55:04.523Z,3.70
2023-03-08T20:57:31.550Z,3.70
2023-03-08T20:59:58.529Z,3.70
2023-03-08T21:02:26.724Z,3.80
2023-03-08T21:04:53.998Z,3.70
2023-03-08T21:07:20.997Z,3.80
2023-03-08T21:09:47.963Z,3.80
2023-03-08T21:12:15.980Z,3.80
2023-03-08T21:14:43.084Z,3.80
2023-03-08T21:17:10.189Z,3.80
2023-03-08T21:19:38.191Z,3.80
2023-03-08T21:22:07.324Z,3.80
2023-03-08T21:24:36.124Z,3.80
2023-03-08T21:27:03.317Z,3.90
2023-03-08T21:29:31.585Z,3.90
2023-03-08T21:31:59.443Z,3.80
2023-03-08T21:34:26.752Z,3.80
2023-03-08T21:36:53.726Z,3.80
2023-03-08T21:39:21.043Z,3.80
2023-03-08T21:41:48.508Z,3.80
2023-03-08T21:44:18.251Z,3.80
2023-03-08T21:46:46.732Z,3.80
2023-03-08T21:49:22.099Z,3.90
2023-03-08T21:51:49.782Z,3.80
2023-03-08T21:54:16.783Z,3.80
2023-03-08T21:56:44.280Z,3.90
2023-03-08T21:59:13.058Z,3.90
2023-03-08T22:01:40.229Z,3.90
2023-03-08T22:04:07.281Z,3.90
2023-03-08T22:06:34.233Z,3.90
2023-03-08T22:09:01.874Z,3.80
2023-03-08T22:11:29.062Z,3.80
2023-03-08T22:13:59.348Z,3.80
2023-03-08T22:16:27.245Z,3.80
2023-03-08T22:18:55.280Z,3.90
2023-03-08T22:21:22.423Z,3.90
2023-03-08T22:23:51.712Z,3.90
2023-03-08T22:26:18.777Z,3.90
2023-03-08T22:28:45.804Z,3.90
2023-03-08T22:31:17.510Z,3.90
2023-03-08T22:33:44.574Z,3.90
2023-03-08T22:36:12.677Z,4.00
2023-03-08T22:38:39.877Z,4.00
2023-03-08T22:41:15.073Z,4.00
2023-03-08T22:43:42.207Z,4.00
2023-03-08T22:46:16.367Z,3.90
2023-03-08T22:48:44.698Z,4.00
2023-03-08T22:51:12.102Z,3.90
2023-03-08T22:53:39.989Z,3.90
2023-03-08T22:56:08.265Z,3.90
2023-03-08T22:58:35.353Z,3.90
2023-03-08T23:01:02.173Z,3.90
2023-03-08T23:03:31.288Z,3.90
2023-03-08T23:05:58.266Z,4.00
2023-03-08T23:08:25.381Z,4.00
2023-03-08T23:10:52.239Z,4.00
2023-03-08T23:13:32.978Z,4.00
2023-03-08T23:16:01.187Z,4.00
2023-03-08T23:18:28.096Z,4.00
2023-03-08T23:20:55.615Z,4.00
2023-03-08T23:23:25.270Z,4.00
2023-03-08T23:25:52.505Z,4.00
2023-03-08T23:28:19.899Z,4.00
2023-03-08T23:30:46.978Z,4.00
2023-03-08T23:33:14.064Z,4.00
2023-03-08T23:35:41.074Z,4.00
2023-03-08T23:38:08.204Z,4.10
2023-03-08T23:40:38.852Z,4.00
2023-03-08T23:43:06.621Z,4.10
2023-03-08T23:45:33.672Z,4.00
2023-03-08T23:48:03.144Z,4.00
2023-03-08T23:50:30.540Z,4.00
2023-03-08T23:52:57.380Z,4.00
2023-03-08T23:55:24.479Z,4.00
2023-03-08T23:57:51.424Z,4.00
